createdAt,value
2018-11-07T00:00:19.222Z,8.79
2018-11-07T00:05:19.483Z,8.99
2018-11-07T00:10:18.944Z,8.89
2018-11-07T00:15:18.525Z,8.79
2018-11-07T00:20:18.995Z,8.69
2018-11-07T00:25:19.319Z,8.59
2018-11-07T00:30:18.877Z,8.69
2018-11-07T00:35:19.090Z,8.79
2018-11-07T00:40:19.795Z,8.59
2018-11-07T00:45:18.886Z,8.69
2018-11-07T00:50:19.193Z,8.69
2018-11-07T00:55:19.117Z,8.69
2018-11-07T01:00:18.913Z,8.69
2018-11-07T01:05:19.199Z,8.79
2018-11-07T01:10:18.624Z,8.99
2018-11-07T01:15:20.574Z,9.19
2018-11-07T01:20:18.514Z,9.09
2018-11-07T01:25:18.985Z,9.19
2018-11-07T01:30:19.221Z,9.09
2018-11-07T01:35:18.513Z,9.39
2018-11-07T01:40:18.959Z,9.39
2018-11-07T01:45:18.560Z,9.19
2018-11-07T01:50:18.848Z,9.19
2018-11-07T01:55:19.331Z,9.39
2018-11-07T02:00:20.434Z,9.49
2018-11-07T02:05:18.864Z,9.49
2018-11-07T02:10:19.276Z,9.39
2018-11-07T02:15:18.934Z,9.29
2018-11-07T02:20:19.197Z,9.29
2018-11-07T02:25:19.107Z,9.19
2018-11-07T02:30:18.896Z,9.39
2018-11-07T02:35:19.186Z,9.49
2018-11-07T02:40:18.666Z,9.69
2018-11-07T02:45:19.268Z,9.59
2018-11-07T02:50:18.561Z,9.49
2018-11-07T02:55:19.036Z,9.39
2018-11-07T03:00:19.229Z,9.29
2018-11-07T03:05:18.532Z,9.19
2018-11-07T03:10:19.153Z,9.19
2018-11-07T03:15:18.626Z,9.39
2018-11-07T03:20:18.862Z,9.39
2018-11-07T03:25:19.334Z,9.49
2018-11-07T03:30:18.650Z,9.29
2018-11-07T03:35:18.826Z,9.19
2018-11-07T03:40:19.314Z,9.19
2018-11-07T03:45:18.926Z,9.19
2018-11-07T03:50:19.581Z,9.09
2018-11-07T03:55:18.700Z,9.19
2018-11-07T04:00:18.981Z,9.09
2018-11-07T04:05:19.190Z,9.19
2018-11-07T04:10:18.681Z,9.39
2018-11-07T04:15:19.312Z,9.39
2018-11-07T04:20:18.596Z,9.19
2018-11-07T04:25:19.024Z,9.49
2018-11-07T04:30:19.286Z,9.59
2018-11-07T04:35:18.602Z,9.49
2018-11-07T04:40:19.051Z,9.49
2018-11-07T04:45:18.697Z,9.49
2018-11-07T04:50:18.925Z,9.59
2018-11-07T04:55:19.418Z,9.69
2018-11-07T05:00:19.228Z,9.69
2018-11-07T05:05:19.361Z,9.59
2018-11-07T05:10:19.429Z,9.59
2018-11-07T05:15:19.062Z,9.69
2018-11-07T05:20:19.329Z,9.69
2018-11-07T05:25:18.786Z,9.69
2018-11-07T05:30:19.440Z,9.69
2018-11-07T05:35:19.286Z,9.59
2018-11-07T05:40:18.750Z,9.59
2018-11-07T05:45:19.356Z,9.49
2018-11-07T05:50:18.621Z,9.39
2018-11-07T05:55:19.149Z,9.49
2018-11-07T06:00:19.340Z,9.29
2018-11-07T06:05:18.650Z,9.09
2018-11-07T06:10:19.074Z,8.99
2018-11-07T06:15:18.758Z,8.89
2018-11-07T06:20:18.992Z,8.79
2018-11-07T06:25:19.442Z,8.79
2018-11-07T06:30:18.683Z,8.59
2018-11-07T06:35:18.914Z,8.59
2018-11-07T06:40:19.392Z,8.49
2018-11-07T06:45:19.039Z,8.39
2018-11-07T06:50:19.329Z,8.39
2018-11-07T06:55:19.074Z,8.39
2018-11-07T07:00:19.084Z,8.59
2018-11-07T07:05:19.324Z,8.69
2018-11-07T07:10:18.825Z,8.79
2018-11-07T07:15:19.361Z,8.89
2018-11-07T07:20:18.679Z,8.99
2018-11-07T07:25:19.124Z,9.09
2018-11-07T07:30:19.670Z,9.09
2018-11-07T07:35:18.666Z,9.09
2018-11-07T07:40:19.098Z,9.19
2018-11-07T07:45:18.761Z,9.19
2018-11-07T07:50:18.998Z,9.59
2018-11-07T07:55:19.459Z,9.69
2018-11-07T08:00:18.746Z,9.79
2018-11-07T08:05:19.000Z,9.89
2018-11-07T08:10:19.487Z,10.19
2018-11-07T08:15:19.100Z,10.19
2018-11-07T08:20:19.350Z,10.39
2018-11-07T08:25:18.892Z,10.58
2018-11-07T08:30:19.093Z,10.58
2018-11-07T08:35:19.382Z,10.58
2018-11-07T08:40:18.858Z,10.78
2018-11-07T08:45:18.538Z,10.88
2018-11-07T08:50:18.791Z,10.88
2018-11-07T08:55:19.342Z,11.08
2018-11-07T09:00:18.666Z,11.18
2018-11-07T09:05:18.796Z,11.18
2018-11-07T09:10:19.279Z,11.28
2018-11-07T09:15:18.867Z,11.48
2018-11-07T09:20:19.168Z,11.78
2018-11-07T09:25:18.654Z,11.98
2018-11-07T09:30:18.889Z,11.98
2018-11-07T09:35:19.122Z,12.38
2018-11-07T09:40:18.590Z,12.48
2018-11-07T09:45:19.245Z,12.68
2018-11-07T09:50:18.488Z,12.98
2018-11-07T09:55:19.000Z,13.08
2018-11-07T10:00:19.188Z,13.18
2018-11-07T10:05:18.627Z,13.48
2018-11-07T10:10:18.929Z,13.48
2018-11-07T10:15:18.619Z,13.75
2018-11-07T10:20:18.990Z,13.83
2018-11-07T10:25:19.238Z,13.81
2018-11-07T10:30:19.616Z,13.97
2018-11-07T10:35:18.732Z,14.01
2018-11-07T10:40:19.209Z,14.26
2018-11-07T10:45:18.851Z,14.44
2018-11-07T10:50:19.147Z,14.54
2018-11-07T10:55:18.627Z,14.64
2018-11-07T11:00:18.892Z,14.65
2018-11-07T11:05:19.472Z,14.47
2018-11-07T11:10:18.581Z,14.65
2018-11-07T11:15:19.159Z,14.68
2018-11-07T11:20:18.511Z,14.97
2018-11-07T11:25:18.921Z,14.98
2018-11-07T11:30:19.248Z,14.99
2018-11-07T11:35:19.345Z,15.02
2018-11-07T11:40:19.025Z,15.15
2018-11-07T11:45:18.600Z,15.20
2018-11-07T11:50:18.877Z,15.07
2018-11-07T11:55:19.341Z,15.13
2018-11-07T12:00:18.832Z,15.32
2018-11-07T12:05:18.847Z,15.23
2018-11-07T12:10:19.320Z,15.27
2018-11-07T12:15:19.340Z,15.33
2018-11-07T12:20:19.270Z,15.48
2018-11-07T12:25:18.653Z,15.60
2018-11-07T12:30:18.973Z,15.56
2018-11-07T12:35:19.193Z,15.73
2018-11-07T12:40:18.657Z,15.48
2018-11-07T12:45:19.319Z,15.55
2018-11-07T12:50:19.001Z,15.63
2018-11-07T12:55:19.033Z,15.71
2018-11-07T13:00:19.233Z,15.76
2018-11-07T13:05:18.510Z,15.76
2018-11-07T13:10:18.959Z,15.93
2018-11-07T13:15:18.704Z,15.83
2018-11-07T13:20:18.853Z,15.73
2018-11-07T13:25:19.332Z,15.78
2018-11-07T13:30:18.589Z,15.78
2018-11-07T13:35:18.901Z,15.64
2018-11-07T13:40:19.284Z,15.63
2018-11-07T13:45:19.125Z,15.68
2018-11-07T13:50:19.143Z,15.63
2018-11-07T13:55:18.669Z,15.63
2018-11-07T14:00:18.909Z,15.54
2018-11-07T14:05:19.508Z,15.61
2018-11-07T14:10:18.676Z,15.51
2018-11-07T14:15:19.298Z,15.43
2018-11-07T14:20:18.562Z,15.33
2018-11-07T14:25:18.999Z,15.30
2018-11-07T14:30:19.279Z,15.37
2018-11-07T14:35:18.513Z,15.08
2018-11-07T14:40:18.961Z,14.92
2018-11-07T14:45:18.778Z,14.82
2018-11-07T14:50:18.849Z,14.79
2018-11-07T14:55:19.352Z,14.59
2018-11-07T15:00:18.669Z,14.52
2018-11-07T15:05:19.035Z,14.42
2018-11-07T15:10:19.390Z,14.36
2018-11-07T15:15:18.951Z,14.29
2018-11-07T15:20:19.870Z,14.14
2018-11-07T15:25:18.696Z,14.17
2018-11-07T15:30:18.928Z,14.06
2018-11-07T15:35:19.230Z,14.07
2018-11-07T15:40:18.643Z,13.97
2018-11-07T15:45:19.223Z,13.92
2018-11-07T15:50:18.522Z,13.87
2018-11-07T15:55:19.022Z,13.79
2018-11-07T16:00:19.254Z,13.72
2018-11-07T16:05:18.638Z,13.64
2018-11-07T16:10:19.311Z,13.72
2018-11-07T16:15:19.031Z,13.65
2018-11-07T16:20:18.838Z,13.67
2018-11-07T16:25:19.421Z,13.63
2018-11-07T16:30:18.709Z,13.71
2018-11-07T16:35:18.856Z,13.67
2018-11-07T16:40:19.308Z,13.74
2018-11-07T16:45:18.933Z,13.68
2018-11-07T16:50:19.187Z,13.68
2018-11-07T16:55:18.656Z,13.58
2018-11-07T17:00:18.525Z,13.58
2018-11-07T17:05:18.738Z,13.58
2018-11-07T17:10:19.191Z,13.48
2018-11-07T17:15:18.800Z,13.38
2018-11-07T17:20:19.073Z,13.48
2018-11-07T17:25:18.516Z,13.38
2018-11-07T17:30:18.772Z,13.38
2018-11-07T17:35:19.048Z,13.28
2018-11-07T17:40:18.504Z,13.28
2018-11-07T17:45:19.110Z,13.28
2018-11-07T17:50:19.342Z,13.28
2018-11-07T17:55:18.832Z,13.18
2018-11-07T18:00:19.074Z,13.18
2018-11-07T18:05:19.292Z,13.18
2018-11-07T18:10:18.761Z,13.08
2018-11-07T18:15:19.358Z,13.08
2018-11-07T18:20:18.665Z,13.08
2018-11-07T18:25:19.138Z,13.08
2018-11-07T18:30:19.336Z,12.98
2018-11-07T18:35:19.213Z,12.98
2018-11-07T18:40:19.081Z,12.98
2018-11-07T18:45:18.692Z,12.98
2018-11-07T18:50:19.682Z,12.98
2018-11-07T18:55:19.511Z,12.98
2018-11-07T19:00:18.721Z,12.98
2018-11-07T19:05:18.946Z,12.98
2018-11-07T19:10:19.427Z,12.88
2018-11-07T19:15:19.026Z,12.78
2018-11-07T19:20:19.590Z,12.78
2018-11-07T19:25:18.762Z,12.88
2018-11-07T19:30:18.988Z,12.88
2018-11-07T19:35:19.273Z,12.78
2018-11-07T19:40:19.285Z,12.88
2018-11-07T19:45:19.294Z,12.88
2018-11-07T19:50:18.566Z,12.78
2018-11-07T19:55:20.049Z,12.78
2018-11-07T20:00:19.309Z,12.78
2018-11-07T20:05:18.627Z,12.88
2018-11-07T20:10:19.506Z,12.78
2018-11-07T20:15:18.688Z,12.78
2018-11-07T20:20:18.935Z,12.78
2018-11-07T20:25:19.393Z,12.78
2018-11-07T20:30:18.664Z,12.78
2018-11-07T20:35:19.043Z,12.68
2018-11-07T20:40:19.350Z,12.68
2018-11-07T20:45:18.988Z,12.68
2018-11-07T20:50:19.250Z,12.68
2018-11-07T20:55:18.748Z,12.58
2018-11-07T21:00:18.977Z,12.58
2018-11-07T21:05:19.227Z,12.68
2018-11-07T21:10:18.709Z,12.68
2018-11-07T21:15:19.320Z,12.58
2018-11-07T21:20:23.619Z,12.58
2018-11-07T21:25:19.093Z,12.58
2018-11-07T21:30:19.278Z,12.48
2018-11-07T21:35:18.554Z,12.48
2018-11-07T21:40:19.042Z,12.38
2018-11-07T21:45:18.637Z,12.38
2018-11-07T21:50:18.865Z,12.48
2018-11-07T21:55:19.398Z,12.48
2018-11-07T22:00:18.630Z,12.48
2018-11-07T22:05:18.884Z,12.38
2018-11-07T22:10:19.336Z,12.38
2018-11-07T22:15:18.975Z,12.28
2018-11-07T22:20:19.213Z,12.28
2018-11-07T22:25:18.683Z,12.28
2018-11-07T22:30:18.965Z,12.28
2018-11-07T22:35:19.171Z,12.28
2018-11-07T22:40:18.663Z,12.28
2018-11-07T22:45:19.300Z,12.28
2018-11-07T22:50:18.599Z,12.28
2018-11-07T22:55:19.103Z,12.38
2018-11-07T23:00:19.325Z,12.28
2018-11-07T23:05:18.592Z,12.28
2018-11-07T23:10:19.081Z,12.18
2018-11-07T23:15:18.660Z,12.08
2018-11-07T23:20:18.943Z,12.08
2018-11-07T23:25:19.997Z,11.98
2018-11-07T23:30:18.680Z,11.98
2018-11-07T23:35:18.963Z,11.98
2018-11-07T23:40:19.352Z,11.98
2018-11-07T23:45:19.026Z,11.88
2018-11-07T23:50:19.259Z,11.88
2018-11-07T23:55:18.710Z,11.78
